• Join FlightAware (Why Join?)
  • Login
  • US Flag 
Trick or treat! (Boo!!) 
07:45PM EDT


 

Airport Tracker/Info


-or-


 

Live Flight TrackerFlight Track Log ✈ EJM100 ✈ 02-Jul-2013 ✈ KMIA - KSUS

Flight Track Log - Related Links

Times and Time Zones

All times are in EDT time to prevent confusion due to time zone crossing. See the EJM100 flight status page for this flight to view local times or setup timezone preferences in your user account.

Time Position Orientation Groundspeed Altitude Reporting Facility
EDT Latitude Longitude Course Direction KTS MPH feet Rate Location/Type
12:57PM 25.7792 -80.2786 38° Northeast 120 138 1,200  Level Miami Center
12:59PM 25.8539 -80.2136 38° Northeast 293 337 5,200 3,000 Climbing Miami Center
12:59PM 25.8881 -80.2747 302° West 278 320 8,400 3,000 Climbing Miami Center
01:00PM 25.9300 -80.3567 300° West 302 348 10,800 2,100 Climbing Miami Center
01:01PM 25.9903 -80.4486 306° West 327 376 12,700 2,220 Climbing Miami Center
01:02PM 26.0550 -80.5386 309° West 360 414 15,300 2,400 Climbing Miami Center
01:03PM 26.1214 -80.6308 309° West 380 437 17,600 2,400 Climbing Miami Center
01:04PM 26.1942 -80.7281 310° West 396 456 20,100 2,340 Climbing Miami Center
01:05PM 26.2711 -80.8231 312° West 402 463 22,300 1,440 Climbing Miami Center
01:06PM 26.3522 -80.9069 317° Northwest 427 491 23,000 1,320 Climbing Miami Center
01:07PM 26.4475 -81.0100 316° Northwest 436 502 25,000 1,800 Climbing Miami Center
01:08PM 26.5322 -81.1081 314° West 447 514 26,700 1,680 Climbing Miami Center
01:09PM 26.6189 -81.2133 313° West 447 514 28,400 1,800 Climbing Miami Center
01:10PM 26.6978 -81.3047 314° West 447 514 30,400 1,920 Climbing Miami Center
01:11PM 26.7908 -81.3989 318° Northwest 447 514 32,300 2,100 Climbing Miami Center
01:12PM 26.9139 -81.4711 332° Northwest 453 521 34,600 2,100 Climbing Miami Center
01:13PM 27.0289 -81.5294 336° Northwest 453 521 36,600 1,800 Climbing Miami Center
01:15PM 27.1403 -81.6148 330° Northwest  Level FlightAware Approximate
01:15PM 27.2444 -81.6386 330° Northwest 446 513 40,100  Level Miami Center
01:16PM 27.3553 -81.6944 336° Northwest 446 513 41,700 1,440 Climbing Miami Center
01:17PM 27.4764 -81.7558 336° Northwest 434 499 43,000 600 Climbing Miami Center
01:18PM 27.5872 -81.8119 336° Northwest 439 505 43,000  Level Miami Center
01:19PM 27.7019 -81.8708 336° Northwest 446 513 43,000  Level Miami Center
01:21PM 27.9047 -81.9697 337° Northwest 513 590 43,000  Level Jacksonville Center
01:22PM 28.0136 -82.0369 331° Northwest 467 537 43,000  Level Jacksonville Center
01:23PM 28.1142 -82.1136 326° Northwest 450 518 43,000  Level Jacksonville Center
01:24PM 28.2189 -82.1906 327° Northwest 445 512 43,000  Level Jacksonville Center
01:25PM 28.3217 -82.2653 327° Northwest 445 512 43,000  Level Jacksonville Center
01:26PM 28.4264 -82.3403 328° Northwest 445 512 43,000  Level Jacksonville Center
01:27PM 28.5289 -82.4178 326° Northwest 445 512 43,000  Level Jacksonville Center
01:28PM 28.6356 -82.4953 327° Northwest 445 512 43,000  Level Jacksonville Center
01:29PM 28.7339 -82.5681 327° Northwest 440 506 43,000 -60 Level Jacksonville Center
01:30PM 28.8383 -82.6436 328° Northwest 440 506 42,900  Descending Jacksonville Center
01:31PM 28.9428 -82.7217 327° Northwest 445 512 43,000  Climbing Jacksonville Center
01:32PM 29.0453 -82.7975 327° Northwest 445 512 43,000  Level Jacksonville Center
01:33PM 29.1497 -82.8758 327° Northwest 445 512 43,000  Level Jacksonville Center
01:34PM 29.2519 -82.9519 327° Northwest 445 512 43,000  Level Jacksonville Center
01:35PM 29.3542 -83.0283 327° Northwest 445 512 43,000  Level Jacksonville Center
01:36PM 29.4606 -83.1097 326° Northwest 450 518 43,000  Level Jacksonville Center
01:37PM 29.5792 -83.1958 328° Northwest 456 525 43,000  Level Jacksonville Center
01:38PM 29.6708 -83.2703 325° Northwest 456 525 43,000  Level Jacksonville Center
01:39PM 29.7875 -83.3544 328° Northwest 456 525 43,000  Level Jacksonville Center
01:40PM 29.8917 -83.4317 327° Northwest 456 525 43,000  Level Jacksonville Center
01:41PM 29.9956 -83.5114 326° Northwest 450 518 43,000  Level Jacksonville Center
01:42PM 30.1017 -83.5911 327° Northwest 450 518 43,000 540 Level Jacksonville Center
01:43PM 30.2097 -83.6714 327° Northwest 460 529 44,100 900 Climbing Jacksonville Center
01:44PM 30.3158 -83.7492 328° Northwest 460 529 44,800 420 Climbing Jacksonville Center
01:45PM 30.4197 -83.8319 326° Northwest 460 529 45,000 60 Climbing Jacksonville Center
01:46PM 30.5214 -83.9103 326° Northwest 455 524 45,000  Level Jacksonville Center
01:47PM 30.6208 -83.9886 326° Northwest 443 510 45,000  Level Jacksonville Center
01:48PM 30.7225 -84.0669 326° Northwest 443 510 45,000  Level Jacksonville Center
01:49PM 30.8283 -84.1481 327° Northwest 443 510 45,000  Level Jacksonville Center
01:50PM 30.9111 -84.2147 325° Northwest 448 516 45,000  Level Jacksonville Center
01:51PM 31.0250 -84.3011 327° Northwest 448 516 45,000  Level Jacksonville Center
01:52PM 31.1306 -84.3828 326° Northwest 448 516 45,000  Level Jacksonville Center
01:53PM 31.2339 -84.4622 327° Northwest 448 516 45,000  Level Jacksonville Center
01:56PM 31.4883 -84.6647 326° Northwest 458 527 45,000  Level Atlanta Center
01:57PM 31.5922 -84.7458 326° Northwest 452 520 45,000  Level Atlanta Center
01:58PM 31.6961 -84.8297 326° Northwest 452 520 45,000  Level Atlanta Center
01:59PM 31.8000 -84.9111 326° Northwest 457 526 45,000  Level Atlanta Center
02:00PM 31.9078 -84.9978 326° Northwest 457 526 45,000  Level Atlanta Center
02:01PM 32.0156 -85.0822 326° Northwest 462 532 45,000  Level Atlanta Center
02:02PM 32.1192 -85.1644 326° Northwest 462 532 45,000  Level Atlanta Center
02:03PM 32.2311 -85.2494 327° Northwest 462 532 45,000  Level Atlanta Center
02:04PM 32.3408 -85.3369 326° Northwest 462 532 45,000  Level Atlanta Center
02:05PM 32.4506 -85.4222 327° Northwest 462 532 45,000  Level Atlanta Center
02:06PM 32.5581 -85.5100 325° Northwest 462 532 45,000  Level Atlanta Center
02:07PM 32.6636 -85.5933 326° Northwest 462 532 45,000  Level Atlanta Center
02:08PM 32.7731 -85.6842 325° Northwest 462 532 45,000  Level Atlanta Center
02:09PM 32.8803 -85.7728 325° Northwest 462 532 45,000  Level Atlanta Center
02:10PM 32.9875 -85.8617 325° Northwest 462 532 45,000  Level Atlanta Center
02:11PM 33.0950 -85.9456 327° Northwest 462 532 45,000  Level Atlanta Center
02:12PM 33.2019 -86.0372 324° Northwest 467 537 45,000  Level Atlanta Center
02:13PM 33.3214 -86.1319 326° Northwest 472 543 45,000  Level Atlanta Center
02:14PM 33.4283 -86.2242 324° Northwest 464 534 45,000  Level Atlanta Center
02:15PM 33.5353 -86.3117 326° Northwest 469 540 45,000  Level Atlanta Center
02:16PM 33.6236 -86.3914 323° Northwest 464 534 45,000  Level Atlanta Center
02:17PM 33.7306 -86.4792 326° Northwest 464 534 45,000  Level Atlanta Center
02:18PM 33.8372 -86.5672 326° Northwest 464 534 45,000  Level Atlanta Center
02:20PM 34.0492 -86.7497 325° Northwest 467 537 45,000  Level Memphis Center
02:21PM 34.1539 -86.8358 326° Northwest 467 537 45,000  Level Memphis Center
02:22PM 34.2714 -86.9314 326° Northwest 457 526 45,000  Level Memphis Center
02:23PM 34.3783 -87.0203 326° Northwest 457 526 45,000  Level Memphis Center
02:24PM 34.4831 -87.1144 323° Northwest 462 532 45,000  Level Memphis Center
02:25PM 34.5897 -87.2061 325° Northwest 468 539 45,000  Level Memphis Center
02:26PM 34.6836 -87.2886 324° Northwest 468 539 45,000  Level Memphis Center
02:27PM 34.7900 -87.3783 325° Northwest 468 539 45,000  Level Memphis Center
02:28PM 34.8986 -87.4706 325° Northwest 468 539 45,000  Level Memphis Center
02:29PM 35.0050 -87.5658 324° Northwest 468 539 45,000  Level Memphis Center
02:30PM 35.1114 -87.6589 324° Northwest 468 539 45,000  Level Memphis Center
02:31PM 35.2242 -87.7594 324° Northwest 480 552 45,000  Level Memphis Center
02:32PM 35.3303 -87.8503 325° Northwest 480 552 45,000  Level Memphis Center
02:33PM 35.4386 -87.9489 323° Northwest 464 534 45,000  Level Memphis Center
02:34PM 35.5447 -88.0453 324° Northwest 462 532 45,000  Level Memphis Center
02:35PM 35.6508 -88.1394 324° Northwest 467 537 45,000  Level Memphis Center
02:36PM 35.7628 -88.2286 327° Northwest 472 543 45,000  Level Memphis Center
02:37PM 35.8686 -88.3206 325° Northwest 472 543 45,000  Level Memphis Center
02:38PM 35.9744 -88.4206 323° Northwest 477 549 45,000  Level Memphis Center
02:39PM 36.0822 -88.5156 325° Northwest 477 549 45,000 -300 Level Memphis Center
02:40PM 36.1900 -88.6133 324° Northwest 477 549 44,400 -900 Descending Memphis Center
02:41PM 36.2978 -88.7114 324° Northwest 483 556 43,300 -1,320 Descending Memphis Center
02:42PM 36.4053 -88.8072 324° Northwest 483 556 41,800 -1,500 Descending Memphis Center
02:43PM 36.5106 -88.9033 324° Northwest 483 556 40,300 -1,500 Descending Memphis Center
02:44PM 36.6097 -88.9919 324° Northwest 484 557 38,800 -1,500 Descending Memphis Center
02:45PM 36.7169 -89.0911 323° Northwest 484 557 37,300 -1,500 Descending Memphis Center
02:46PM 36.8242 -89.1958 322° Northwest 489 563 35,800 -1,500 Descending Memphis Center
02:47PM 36.9336 -89.2953 324° Northwest 489 563 34,300 -1,320 Descending Memphis Center
02:48PM 37.0386 -89.3953 323° Northwest 489 563 33,200 -1,440 Descending Memphis Center
02:49PM 37.1433 -89.4931 323° Northwest 484 557 31,500 -2,100 Descending Memphis Center
02:50PM 37.2914 -89.6300 324° Northwest 475 547 28,500 -2,280 Descending Kansas City Center
02:51PM 37.3936 -89.7247 324° Northwest 468 539 26,300 -2,040 Descending Kansas City Center
02:52PM 37.4897 -89.8169 323° Northwest 451 519 24,300 -2,040 Descending Kansas City Center
02:53PM 37.5853 -89.9078 323° Northwest 439 505 22,200 -2,160 Descending Kansas City Center
02:54PM 37.6817 -89.9967 324° Northwest 433 498 19,900 -2,220 Descending Kansas City Center
02:55PM 37.7689 -90.0806 323° Northwest 412 474 17,700 -2,040 Descending Kansas City Center
02:56PM 37.8531 -90.1603 323° Northwest 391 450 15,700 -1,980 Descending Kansas City Center
02:57PM 37.9344 -90.2361 324° Northwest 370 426 13,700 -1,800 Descending Kansas City Center
02:58PM 38.0394 -90.3094 331° Northwest 360 414 12,000 -1,200 Descending Kansas City Center
02:59PM 38.1311 -90.3489 341° North 349 402 11,200 -900 Descending Kansas City Center
03:00PM 38.2106 -90.4242 323° Northwest 357 411 10,200 -600 Descending Kansas City Center
03:01PM 38.2814 -90.5050 318° Northwest 346 398 10,000 -240 Descending Kansas City Center
03:02PM 38.3506 -90.5831 319° Northwest 336 387 9,800 -1,320 Descending Kansas City Center
03:03PM 38.4047 -90.6450 318° Northwest 274 315 7,300 -2,580 Descending Kansas City Center
03:04PM 38.4692 -90.7169 319° Northwest 258 297 4,500 -1,920 Descending Kansas City Center
03:05PM 38.5217 -90.7761 319° Northwest 254 292 3,400 -1,020 Descending Kansas City Center
03:06PM 38.5614 -90.8344 311° West 235 270 2,500 -480 Descending Kansas City Center
03:07PM 38.6022 -90.8386 355° North 199 229 2,500  Level Kansas City Center
03:08PM 38.6289 -90.8000 49° Northeast 164 189 2,500 -300 Level Kansas City Center
03:09PM 38.6428 -90.7503 70° East 153 176 1,900 -720 Descending Kansas City Center
03:11PM 38.6514 -90.6992 78° East 151 174 1,100 -600 Descending Kansas City Center
03:12PM 38.6603 -90.6472 78° East 145 167 700 -420 Descending Kansas City Center